sensor_id;sensor_type;location;lat;lon;timestamp;P1;durP1;ratioP1;P2;durP2;ratioP2
10805;SDS011;5455;53.224;6.000;2023-02-28T00:00:37;4.43;;;1.80;;
10805;SDS011;5455;53.224;6.000;2023-02-28T00:03:05;4.40;;;1.93;;
10805;SDS011;5455;53.224;6.000;2023-02-28T00:05:32;4.53;;;2.20;;
10805;SDS011;5455;53.224;6.000;2023-02-28T00:08:00;4.43;;;1.90;;
10805;SDS011;5455;53.224;6.000;2023-02-28T00:10:28;4.70;;;2.07;;
10805;SDS011;5455;53.224;6.000;2023-02-28T00:12:59;4.80;;;2.20;;
10805;SDS011;5455;53.224;6.000;2023-02-28T00:15:30;6.07;;;2.33;;
10805;SDS011;5455;53.224;6.000;2023-02-28T00:17:58;8.23;;;2.20;;
10805;SDS011;5455;53.224;6.000;2023-02-28T00:20:25;3.70;;;1.93;;
10805;SDS011;5455;53.224;6.000;2023-02-28T00:22:53;2.90;;;1.80;;
10805;SDS011;5455;53.224;6.000;2023-02-28T00:25:22;4.37;;;1.90;;
10805;SDS011;5455;53.224;6.000;2023-02-28T00:27:50;6.23;;;1.60;;
10805;SDS011;5455;53.224;6.000;2023-02-28T00:30:18;3.70;;;1.60;;
10805;SDS011;5455;53.224;6.000;2023-02-28T00:32:48;3.57;;;1.80;;
10805;SDS011;5455;53.224;6.000;2023-02-28T00:35:16;3.23;;;1.70;;
10805;SDS011;5455;53.224;6.000;2023-02-28T00:37:43;4.17;;;1.60;;
10805;SDS011;5455;53.224;6.000;2023-02-28T00:40:11;4.30;;;1.50;;
10805;SDS011;5455;53.224;6.000;2023-02-28T00:42:39;5.77;;;1.80;;
10805;SDS011;5455;53.224;6.000;2023-02-28T00:45:06;6.17;;;2.23;;
10805;SDS011;5455;53.224;6.000;2023-02-28T00:47:37;2.97;;;1.87;;
10805;SDS011;5455;53.224;6.000;2023-02-28T00:50:04;5.63;;;1.80;;
10805;SDS011;5455;53.224;6.000;2023-02-28T00:52:32;4.87;;;1.37;;
10805;SDS011;5455;53.224;6.000;2023-02-28T00:54:59;4.63;;;1.57;;
10805;SDS011;5455;53.224;6.000;2023-02-28T00:57:26;2.90;;;1.47;;
10805;SDS011;5455;53.224;6.000;2023-02-28T00:59:53;3.63;;;1.30;;
10805;SDS011;5455;53.224;6.000;2023-02-28T01:02:23;5.60;;;1.80;;
10805;SDS011;5455;53.224;6.000;2023-02-28T01:04:51;3.40;;;1.43;;
10805;SDS011;5455;53.224;6.000;2023-02-28T01:07:18;5.47;;;1.30;;
10805;SDS011;5455;53.224;6.000;2023-02-28T01:09:45;4.93;;;1.17;;
10805;SDS011;5455;53.224;6.000;2023-02-28T01:12:12;3.70;;;1.10;;
10805;SDS011;5455;53.224;6.000;2023-02-28T01:14:39;3.93;;;1.60;;
10805;SDS011;5455;53.224;6.000;2023-02-28T01:17:06;6.50;;;1.50;;
10805;SDS011;5455;53.224;6.000;2023-02-28T01:19:34;6.10;;;1.57;;
10805;SDS011;5455;53.224;6.000;2023-02-28T01:22:06;4.77;;;1.33;;
10805;SDS011;5455;53.224;6.000;2023-02-28T01:24:33;2.53;;;1.03;;
10805;SDS011;5455;53.224;6.000;2023-02-28T01:27:00;3.47;;;1.30;;
10805;SDS011;5455;53.224;6.000;2023-02-28T01:29:27;2.83;;;1.17;;
10805;SDS011;5455;53.224;6.000;2023-02-28T01:31:54;4.13;;;1.47;;
10805;SDS011;5455;53.224;6.000;2023-02-28T01:34:22;3.90;;;1.13;;
10805;SDS011;5455;53.224;6.000;2023-02-28T01:36:50;5.53;;;1.37;;
10805;SDS011;5455;53.224;6.000;2023-02-28T01:39:18;2.63;;;1.10;;
10805;SDS011;5455;53.224;6.000;2023-02-28T01:41:45;4.83;;;1.00;;
10805;SDS011;5455;53.224;6.000;2023-02-28T01:47:16;2.60;;;1.00;;
10805;SDS011;5455;53.224;6.000;2023-02-28T01:49:43;4.03;;;1.40;;
10805;SDS011;5455;53.224;6.000;2023-02-28T01:52:11;4.20;;;1.00;;
10805;SDS011;5455;53.224;6.000;2023-02-28T01:54:46;7.07;;;1.17;;
10805;SDS011;5455;53.224;6.000;2023-02-28T01:57:19;2.73;;;1.17;;
10805;SDS011;5455;53.224;6.000;2023-02-28T01:59:59;2.70;;;1.07;;
10805;SDS011;5455;53.224;6.000;2023-02-28T02:02:38;8.57;;;1.30;;
10805;SDS011;5455;53.224;6.000;2023-02-28T02:05:12;4.53;;;1.20;;
10805;SDS011;5455;53.224;6.000;2023-02-28T02:07:42;3.30;;;0.97;;
10805;SDS011;5455;53.224;6.000;2023-02-28T02:10:13;3.23;;;1.20;;
10805;SDS011;5455;53.224;6.000;2023-02-28T02:12:49;5.53;;;0.90;;
10805;SDS011;5455;53.224;6.000;2023-02-28T02:21:19;3.00;;;0.80;;
10805;SDS011;5455;53.224;6.000;2023-02-28T02:31:57;1.97;;;0.63;;
10805;SDS011;5455;53.224;6.000;2023-02-28T02:37:39;1.70;;;0.77;;
10805;SDS011;5455;53.224;6.000;2023-02-28T02:48:22;3.43;;;0.80;;
10805;SDS011;5455;53.224;6.000;2023-02-28T02:50:56;3.47;;;1.07;;
10805;SDS011;5455;53.224;6.000;2023-02-28T02:53:34;1.90;;;0.80;;
10805;SDS011;5455;53.224;6.000;2023-02-28T02:56:06;3.33;;;1.07;;
10805;SDS011;5455;53.224;6.000;2023-02-28T02:58:37;5.80;;;1.07;;
10805;SDS011;5455;53.224;6.000;2023-02-28T03:01:12;4.77;;;0.80;;
10805;SDS011;5455;53.224;6.000;2023-02-28T03:03:45;4.00;;;0.80;;
10805;SDS011;5455;53.224;6.000;2023-02-28T03:06:13;2.90;;;0.80;;
10805;SDS011;5455;53.224;6.000;2023-02-28T03:08:41;2.63;;;0.80;;
10805;SDS011;5455;53.224;6.000;2023-02-28T03:11:12;2.17;;;1.00;;
10805;SDS011;5455;53.224;6.000;2023-02-28T03:27:38;3.23;;;0.60;;
10805;SDS011;5455;53.224;6.000;2023-02-28T03:30:10;2.27;;;0.50;;
10805;SDS011;5455;53.224;6.000;2023-02-28T03:35:14;1.87;;;0.80;;
10805;SDS011;5455;53.224;6.000;2023-02-28T03:37:50;1.53;;;0.90;;
10805;SDS011;5455;53.224;6.000;2023-02-28T03:40:21;3.20;;;0.80;;
10805;SDS011;5455;53.224;6.000;2023-02-28T03:42:57;5.27;;;0.90;;
10805;SDS011;5455;53.224;6.000;2023-02-28T03:45:29;3.40;;;0.60;;
10805;SDS011;5455;53.224;6.000;2023-02-28T03:50:44;1.87;;;0.97;;
10805;SDS011;5455;53.224;6.000;2023-02-28T03:55:49;4.20;;;1.00;;
10805;SDS011;5455;53.224;6.000;2023-02-28T04:01:00;2.50;;;0.90;;
10805;SDS011;5455;53.224;6.000;2023-02-28T04:03:35;3.80;;;1.00;;
10805;SDS011;5455;53.224;6.000;2023-02-28T04:06:04;7.00;;;1.30;;
10805;SDS011;5455;53.224;6.000;2023-02-28T04:08:33;1.60;;;0.70;;
10805;SDS011;5455;53.224;6.000;2023-02-28T04:11:02;3.63;;;0.73;;
10805;SDS011;5455;53.224;6.000;2023-02-28T04:13:33;6.07;;;0.90;;
10805;SDS011;5455;53.224;6.000;2023-02-28T04:16:00;3.47;;;0.83;;
10805;SDS011;5455;53.224;6.000;2023-02-28T04:18:27;2.53;;;0.80;;
10805;SDS011;5455;53.224;6.000;2023-02-28T04:20:54;4.60;;;0.97;;
10805;SDS011;5455;53.224;6.000;2023-02-28T04:23:23;4.03;;;1.10;;
10805;SDS011;5455;53.224;6.000;2023-02-28T04:25:54;1.60;;;0.90;;
10805;SDS011;5455;53.224;6.000;2023-02-28T04:28:21;1.67;;;0.63;;
10805;SDS011;5455;53.224;6.000;2023-02-28T04:30:54;1.20;;;0.67;;
10805;SDS011;5455;53.224;6.000;2023-02-28T04:33:28;2.03;;;0.73;;
10805;SDS011;5455;53.224;6.000;2023-02-28T04:36:03;2.50;;;1.07;;
10805;SDS011;5455;53.224;6.000;2023-02-28T04:38:33;2.47;;;0.70;;
10805;SDS011;5455;53.224;6.000;2023-02-28T04:41:04;1.33;;;0.60;;
10805;SDS011;5455;53.224;6.000;2023-02-28T04:43:31;3.47;;;0.73;;
10805;SDS011;5455;53.224;6.000;2023-02-28T04:46:00;1.13;;;0.47;;
10805;SDS011;5455;53.224;6.000;2023-02-28T04:48:29;3.33;;;0.80;;
10805;SDS011;5455;53.224;6.000;2023-02-28T04:51:01;3.27;;;0.80;;
10805;SDS011;5455;53.224;6.000;2023-02-28T04:53:29;1.20;;;0.70;;
10805;SDS011;5455;53.224;6.000;2023-02-28T04:55:56;1.70;;;0.60;;
10805;SDS011;5455;53.224;6.000;2023-02-28T04:58:23;4.43;;;0.67;;
10805;SDS011;5455;53.224;6.000;2023-02-28T05:00:52;1.30;;;0.70;;
10805;SDS011;5455;53.224;6.000;2023-02-28T05:03:20;4.13;;;0.97;;
10805;SDS011;5455;53.224;6.000;2023-02-28T05:05:48;2.70;;;0.67;;
10805;SDS011;5455;53.224;6.000;2023-02-28T05:08:15;3.70;;;0.60;;
10805;SDS011;5455;53.224;6.000;2023-02-28T05:10:42;2.77;;;0.80;;
10805;SDS011;5455;53.224;6.000;2023-02-28T05:13:11;2.40;;;0.80;;
10805;SDS011;5455;53.224;6.000;2023-02-28T05:15:39;3.50;;;0.97;;
10805;SDS011;5455;53.224;6.000;2023-02-28T05:18:11;3.10;;;1.10;;
10805;SDS011;5455;53.224;6.000;2023-02-28T05:20:38;5.20;;;1.00;;
10805;SDS011;5455;53.224;6.000;2023-02-28T05:23:04;3.07;;;1.50;;
10805;SDS011;5455;53.224;6.000;2023-02-28T05:25:31;2.10;;;1.00;;
10805;SDS011;5455;53.224;6.000;2023-02-28T05:27:59;5.33;;;1.43;;
10805;SDS011;5455;53.224;6.000;2023-02-28T05:30:27;1.73;;;0.90;;
10805;SDS011;5455;53.224;6.000;2023-02-28T05:32:54;7.30;;;1.10;;
10805;SDS011;5455;53.224;6.000;2023-02-28T05:35:21;2.20;;;1.00;;
10805;SDS011;5455;53.224;6.000;2023-02-28T05:37:48;1.30;;;0.70;;
10805;SDS011;5455;53.224;6.000;2023-02-28T05:40:15;1.87;;;1.00;;
10805;SDS011;5455;53.224;6.000;2023-02-28T05:42:43;3.10;;;1.10;;
10805;SDS011;5455;53.224;6.000;2023-02-28T05:45:10;2.63;;;0.80;;
10805;SDS011;5455;53.224;6.000;2023-02-28T05:47:39;1.40;;;0.77;;
10805;SDS011;5455;53.224;6.000;2023-02-28T05:50:06;0.83;;;0.70;;
10805;SDS011;5455;53.224;6.000;2023-02-28T05:52:36;1.47;;;1.07;;
10805;SDS011;5455;53.224;6.000;2023-02-28T05:55:03;1.93;;;1.10;;
10805;SDS011;5455;53.224;6.000;2023-02-28T05:57:31;2.27;;;1.10;;
10805;SDS011;5455;53.224;6.000;2023-02-28T05:59:58;3.13;;;1.37;;
10805;SDS011;5455;53.224;6.000;2023-02-28T06:02:25;4.13;;;1.80;;
10805;SDS011;5455;53.224;6.000;2023-02-28T06:04:52;4.47;;;2.20;;
10805;SDS011;5455;53.224;6.000;2023-02-28T06:07:19;1.60;;;1.50;;
10805;SDS011;5455;53.224;6.000;2023-02-28T06:09:45;1.87;;;1.60;;
10805;SDS011;5455;53.224;6.000;2023-02-28T06:12:12;2.50;;;1.70;;
10805;SDS011;5455;53.224;6.000;2023-02-28T06:14:39;2.37;;;1.70;;
10805;SDS011;5455;53.224;6.000;2023-02-28T06:17:08;2.87;;;1.77;;
10805;SDS011;5455;53.224;6.000;2023-02-28T06:19:36;1.80;;;1.40;;
10805;SDS011;5455;53.224;6.000;2023-02-28T06:22:05;2.10;;;1.47;;
10805;SDS011;5455;53.224;6.000;2023-02-28T06:24:32;1.57;;;1.40;;
10805;SDS011;5455;53.224;6.000;2023-02-28T06:26:59;1.80;;;1.30;;
10805;SDS011;5455;53.224;6.000;2023-02-28T06:29:32;2.00;;;1.60;;
10805;SDS011;5455;53.224;6.000;2023-02-28T06:32:00;1.47;;;1.30;;
10805;SDS011;5455;53.224;6.000;2023-02-28T06:34:28;2.03;;;1.70;;
10805;SDS011;5455;53.224;6.000;2023-02-28T06:36:55;1.93;;;1.70;;
10805;SDS011;5455;53.224;6.000;2023-02-28T06:39:22;1.93;;;1.60;;
10805;SDS011;5455;53.224;6.000;2023-02-28T06:41:49;2.10;;;1.80;;
10805;SDS011;5455;53.224;6.000;2023-02-28T06:44:21;2.03;;;1.50;;
10805;SDS011;5455;53.224;6.000;2023-02-28T06:46:49;2.93;;;1.77;;
10805;SDS011;5455;53.224;6.000;2023-02-28T06:49:17;2.67;;;1.80;;
10805;SDS011;5455;53.224;6.000;2023-02-28T06:51:44;2.03;;;1.83;;
10805;SDS011;5455;53.224;6.000;2023-02-28T06:54:11;2.93;;;1.70;;
10805;SDS011;5455;53.224;6.000;2023-02-28T06:56:38;1.90;;;1.70;;
10805;SDS011;5455;53.224;6.000;2023-02-28T06:59:06;2.17;;;1.70;;
10805;SDS011;5455;53.224;6.000;2023-02-28T07:01:33;2.03;;;1.83;;
10805;SDS011;5455;53.224;6.000;2023-02-28T07:04:00;2.00;;;1.73;;
10805;SDS011;5455;53.224;6.000;2023-02-28T07:06:27;2.57;;;1.80;;
10805;SDS011;5455;53.224;6.000;2023-02-28T07:08:54;3.53;;;2.23;;
10805;SDS011;5455;53.224;6.000;2023-02-28T07:11:22;2.00;;;1.80;;
10805;SDS011;5455;53.224;6.000;2023-02-28T07:13:52;3.73;;;2.10;;
10805;SDS011;5455;53.224;6.000;2023-02-28T07:16:21;2.20;;;2.00;;
10805;SDS011;5455;53.224;6.000;2023-02-28T07:18:49;3.37;;;2.60;;
10805;SDS011;5455;53.224;6.000;2023-02-28T07:21:16;3.00;;;2.40;;
10805;SDS011;5455;53.224;6.000;2023-02-28T07:23:43;4.20;;;3.23;;
10805;SDS011;5455;53.224;6.000;2023-02-28T07:26:11;4.13;;;2.97;;
10805;SDS011;5455;53.224;6.000;2023-02-28T07:28:41;3.67;;;3.10;;
10805;SDS011;5455;53.224;6.000;2023-02-28T07:31:09;4.27;;;3.00;;
10805;SDS011;5455;53.224;6.000;2023-02-28T07:33:36;4.20;;;3.17;;
10805;SDS011;5455;53.224;6.000;2023-02-28T07:36:07;4.50;;;3.80;;
10805;SDS011;5455;53.224;6.000;2023-02-28T07:38:36;4.40;;;3.67;;
10805;SDS011;5455;53.224;6.000;2023-02-28T07:41:03;4.33;;;3.93;;
10805;SDS011;5455;53.224;6.000;2023-02-28T07:43:31;5.47;;;4.00;;
10805;SDS011;5455;53.224;6.000;2023-02-28T07:46:02;5.23;;;4.03;;
10805;SDS011;5455;53.224;6.000;2023-02-28T07:48:34;4.70;;;3.70;;
10805;SDS011;5455;53.224;6.000;2023-02-28T07:51:02;4.80;;;3.73;;
10805;SDS011;5455;53.224;6.000;2023-02-28T07:53:29;6.23;;;3.90;;
10805;SDS011;5455;53.224;6.000;2023-02-28T07:55:57;4.47;;;3.60;;
10805;SDS011;5455;53.224;6.000;2023-02-28T07:58:25;4.37;;;3.80;;
10805;SDS011;5455;53.224;6.000;2023-02-28T08:00:53;5.17;;;3.83;;
10805;SDS011;5455;53.224;6.000;2023-02-28T08:03:21;5.07;;;4.40;;
10805;SDS011;5455;53.224;6.000;2023-02-28T08:05:49;5.17;;;4.00;;
10805;SDS011;5455;53.224;6.000;2023-02-28T08:08:16;4.83;;;3.90;;
10805;SDS011;5455;53.224;6.000;2023-02-28T08:10:43;4.20;;;3.70;;
10805;SDS011;5455;53.224;6.000;2023-02-28T08:13:10;5.30;;;4.10;;
10805;SDS011;5455;53.224;6.000;2023-02-28T08:15:37;4.63;;;4.10;;
10805;SDS011;5455;53.224;6.000;2023-02-28T08:18:04;5.10;;;3.77;;
10805;SDS011;5455;53.224;6.000;2023-02-28T08:20:31;6.70;;;4.50;;
10805;SDS011;5455;53.224;6.000;2023-02-28T08:22:58;4.93;;;4.10;;
10805;SDS011;5455;53.224;6.000;2023-02-28T08:25:25;4.60;;;4.00;;
10805;SDS011;5455;53.224;6.000;2023-02-28T08:27:52;5.73;;;4.37;;
10805;SDS011;5455;53.224;6.000;2023-02-28T08:30:19;4.67;;;3.80;;
10805;SDS011;5455;53.224;6.000;2023-02-28T08:32:48;3.87;;;3.47;;
10805;SDS011;5455;53.224;6.000;2023-02-28T08:35:15;6.80;;;4.30;;
10805;SDS011;5455;53.224;6.000;2023-02-28T08:37:42;5.20;;;4.00;;
10805;SDS011;5455;53.224;6.000;2023-02-28T08:40:09;5.73;;;4.00;;
10805;SDS011;5455;53.224;6.000;2023-02-28T08:42:37;6.93;;;4.20;;
10805;SDS011;5455;53.224;6.000;2023-02-28T08:45:04;5.10;;;4.37;;
10805;SDS011;5455;53.224;6.000;2023-02-28T08:47:32;4.53;;;3.97;;
10805;SDS011;5455;53.224;6.000;2023-02-28T08:49:59;7.70;;;4.23;;
10805;SDS011;5455;53.224;6.000;2023-02-28T08:52:26;6.63;;;4.17;;
10805;SDS011;5455;53.224;6.000;2023-02-28T08:54:52;5.80;;;4.43;;
10805;SDS011;5455;53.224;6.000;2023-02-28T08:57:20;6.40;;;4.40;;
10805;SDS011;5455;53.224;6.000;2023-02-28T08:59:47;6.33;;;4.37;;
10805;SDS011;5455;53.224;6.000;2023-02-28T09:02:14;7.03;;;4.93;;
10805;SDS011;5455;53.224;6.000;2023-02-28T09:04:41;5.13;;;4.60;;
10805;SDS011;5455;53.224;6.000;2023-02-28T09:07:08;5.17;;;4.47;;
10805;SDS011;5455;53.224;6.000;2023-02-28T09:09:39;4.80;;;3.80;;
10805;SDS011;5455;53.224;6.000;2023-02-28T09:12:24;6.27;;;4.70;;
10805;SDS011;5455;53.224;6.000;2023-02-28T09:14:52;7.00;;;4.73;;
10805;SDS011;5455;53.224;6.000;2023-02-28T09:17:19;5.50;;;4.57;;
10805;SDS011;5455;53.224;6.000;2023-02-28T09:19:47;5.63;;;4.73;;
10805;SDS011;5455;53.224;6.000;2023-02-28T09:22:15;6.37;;;4.87;;
10805;SDS011;5455;53.224;6.000;2023-02-28T09:24:43;6.67;;;4.50;;
10805;SDS011;5455;53.224;6.000;2023-02-28T09:27:11;5.87;;;4.30;;
10805;SDS011;5455;53.224;6.000;2023-02-28T09:29:40;5.00;;;4.43;;
10805;SDS011;5455;53.224;6.000;2023-02-28T09:32:07;5.47;;;4.50;;
10805;SDS011;5455;53.224;6.000;2023-02-28T09:34:34;7.33;;;5.00;;
10805;SDS011;5455;53.224;6.000;2023-02-28T09:37:03;6.90;;;4.67;;
10805;SDS011;5455;53.224;6.000;2023-02-28T09:39:30;4.67;;;4.13;;
10805;SDS011;5455;53.224;6.000;2023-02-28T09:41:58;7.03;;;4.70;;
10805;SDS011;5455;53.224;6.000;2023-02-28T09:44:29;6.80;;;4.90;;
10805;SDS011;5455;53.224;6.000;2023-02-28T09:47:32;6.83;;;4.43;;
10805;SDS011;5455;53.224;6.000;2023-02-28T09:50:06;5.80;;;4.57;;
10805;SDS011;5455;53.224;6.000;2023-02-28T09:52:45;6.47;;;4.57;;
10805;SDS011;5455;53.224;6.000;2023-02-28T09:57:51;5.70;;;4.17;;
10805;SDS011;5455;53.224;6.000;2023-02-28T10:05:17;6.23;;;4.43;;
10805;SDS011;5455;53.224;6.000;2023-02-28T10:08:04;8.13;;;5.30;;
10805;SDS011;5455;53.224;6.000;2023-02-28T10:10:44;8.17;;;5.53;;
10805;SDS011;5455;53.224;6.000;2023-02-28T10:13:15;8.63;;;6.07;;
10805;SDS011;5455;53.224;6.000;2023-02-28T10:15:50;7.03;;;4.80;;
10805;SDS011;5455;53.224;6.000;2023-02-28T10:18:21;6.53;;;4.90;;
10805;SDS011;5455;53.224;6.000;2023-02-28T10:20:52;6.90;;;5.47;;
10805;SDS011;5455;53.224;6.000;2023-02-28T10:23:25;5.63;;;4.23;;
10805;SDS011;5455;53.224;6.000;2023-02-28T10:26:00;5.83;;;4.67;;
10805;SDS011;5455;53.224;6.000;2023-02-28T10:28:35;5.77;;;4.43;;
10805;SDS011;5455;53.224;6.000;2023-02-28T10:31:02;6.50;;;4.50;;
10805;SDS011;5455;53.224;6.000;2023-02-28T10:33:31;5.57;;;4.27;;
10805;SDS011;5455;53.224;6.000;2023-02-28T10:36:00;6.07;;;5.17;;
10805;SDS011;5455;53.224;6.000;2023-02-28T10:41:05;6.40;;;4.37;;
10805;SDS011;5455;53.224;6.000;2023-02-28T10:43:34;5.10;;;3.80;;
10805;SDS011;5455;53.224;6.000;2023-02-28T10:51:13;5.20;;;3.50;;
10805;SDS011;5455;53.224;6.000;2023-02-28T10:56:27;3.97;;;3.40;;
10805;SDS011;5455;53.224;6.000;2023-02-28T11:01:57;4.67;;;3.83;;
10805;SDS011;5455;53.224;6.000;2023-02-28T11:06:59;6.00;;;3.87;;
10805;SDS011;5455;53.224;6.000;2023-02-28T11:09:50;7.30;;;3.57;;
10805;SDS011;5455;53.224;6.000;2023-02-28T11:14:49;6.37;;;4.10;;
10805;SDS011;5455;53.224;6.000;2023-02-28T11:17:23;5.37;;;3.27;;
10805;SDS011;5455;53.224;6.000;2023-02-28T11:19:56;5.70;;;3.33;;
10805;SDS011;5455;53.224;6.000;2023-02-28T11:22:29;5.00;;;2.90;;
10805;SDS011;5455;53.224;6.000;2023-02-28T11:25:06;5.60;;;2.67;;
10805;SDS011;5455;53.224;6.000;2023-02-28T11:30:22;4.03;;;2.67;;
10805;SDS011;5455;53.224;6.000;2023-02-28T11:32:50;3.73;;;2.90;;
10805;SDS011;5455;53.224;6.000;2023-02-28T11:35:27;3.57;;;2.63;;
10805;SDS011;5455;53.224;6.000;2023-02-28T11:38:01;4.03;;;2.83;;
10805;SDS011;5455;53.224;6.000;2023-02-28T11:51:26;3.37;;;2.57;;
10805;SDS011;5455;53.224;6.000;2023-02-28T11:56:43;4.00;;;2.53;;
10805;SDS011;5455;53.224;6.000;2023-02-28T12:09:46;5.67;;;2.40;;
10805;SDS011;5455;53.224;6.000;2023-02-28T12:12:41;3.03;;;2.13;;
10805;SDS011;5455;53.224;6.000;2023-02-28T12:18:22;3.87;;;1.60;;
10805;SDS011;5455;53.224;6.000;2023-02-28T12:26:42;4.23;;;1.97;;
10805;SDS011;5455;53.224;6.000;2023-02-28T12:31:52;3.43;;;1.97;;
10805;SDS011;5455;53.224;6.000;2023-02-28T12:34:25;4.20;;;1.90;;
10805;SDS011;5455;53.224;6.000;2023-02-28T12:37:01;2.20;;;1.90;;
10805;SDS011;5455;53.224;6.000;2023-02-28T12:39:41;3.93;;;1.63;;
10805;SDS011;5455;53.224;6.000;2023-02-28T12:44:49;3.13;;;2.00;;
10805;SDS011;5455;53.224;6.000;2023-02-28T12:47:21;4.87;;;2.17;;
10805;SDS011;5455;53.224;6.000;2023-02-28T12:49:53;2.33;;;1.77;;
10805;SDS011;5455;53.224;6.000;2023-02-28T12:55:10;2.70;;;1.80;;
10805;SDS011;5455;53.224;6.000;2023-02-28T12:57:55;7.57;;;4.30;;
10805;SDS011;5455;53.224;6.000;2023-02-28T13:00:36;4.97;;;2.47;;
10805;SDS011;5455;53.224;6.000;2023-02-28T13:06:26;3.80;;;2.50;;
10805;SDS011;5455;53.224;6.000;2023-02-28T13:08:47;5.47;;;2.33;;
10805;SDS011;5455;53.224;6.000;2023-02-28T13:11:46;4.00;;;2.33;;
10805;SDS011;5455;53.224;6.000;2023-02-28T13:14:35;5.40;;;2.57;;
10805;SDS011;5455;53.224;6.000;2023-02-28T13:19:41;2.87;;;2.20;;
10805;SDS011;5455;53.224;6.000;2023-02-28T13:22:19;4.13;;;2.77;;
10805;SDS011;5455;53.224;6.000;2023-02-28T13:27:50;2.33;;;2.07;;
10805;SDS011;5455;53.224;6.000;2023-02-28T13:35:46;2.77;;;2.20;;
10805;SDS011;5455;53.224;6.000;2023-02-28T13:38:21;3.60;;;2.50;;
10805;SDS011;5455;53.224;6.000;2023-02-28T13:40:51;2.87;;;2.13;;
10805;SDS011;5455;53.224;6.000;2023-02-28T13:43:18;3.53;;;2.40;;
10805;SDS011;5455;53.224;6.000;2023-02-28T13:46:12;3.13;;;1.93;;
10805;SDS011;5455;53.224;6.000;2023-02-28T13:48:40;4.73;;;2.90;;
10805;SDS011;5455;53.224;6.000;2023-02-28T13:54:13;2.57;;;2.30;;
10805;SDS011;5455;53.224;6.000;2023-02-28T14:00:31;2.73;;;1.90;;
10805;SDS011;5455;53.224;6.000;2023-02-28T14:03:10;3.13;;;1.93;;
10805;SDS011;5455;53.224;6.000;2023-02-28T14:08:51;3.47;;;2.07;;
10805;SDS011;5455;53.224;6.000;2023-02-28T14:11:25;2.23;;;1.97;;
10805;SDS011;5455;53.224;6.000;2023-02-28T14:14:03;3.53;;;1.90;;
10805;SDS011;5455;53.224;6.000;2023-02-28T14:19:24;3.20;;;2.23;;
10805;SDS011;5455;53.224;6.000;2023-02-28T14:25:08;2.47;;;2.17;;
10805;SDS011;5455;53.224;6.000;2023-02-28T14:27:50;2.63;;;2.17;;
10805;SDS011;5455;53.224;6.000;2023-02-28T14:41:14;2.60;;;1.80;;
10805;SDS011;5455;53.224;6.000;2023-02-28T14:43:48;3.83;;;2.30;;
10805;SDS011;5455;53.224;6.000;2023-02-28T14:46:16;3.03;;;2.00;;
10805;SDS011;5455;53.224;6.000;2023-02-28T14:48:46;2.50;;;1.90;;
10805;SDS011;5455;53.224;6.000;2023-02-28T14:51:18;4.60;;;2.33;;
10805;SDS011;5455;53.224;6.000;2023-02-28T14:53:52;3.40;;;2.20;;
10805;SDS011;5455;53.224;6.000;2023-02-28T14:56:25;3.00;;;2.03;;
10805;SDS011;5455;53.224;6.000;2023-02-28T14:58:59;3.17;;;2.30;;
10805;SDS011;5455;53.224;6.000;2023-02-28T15:01:26;3.70;;;2.00;;
10805;SDS011;5455;53.224;6.000;2023-02-28T15:03:58;4.20;;;2.50;;
10805;SDS011;5455;53.224;6.000;2023-02-28T15:06:31;3.77;;;2.33;;
10805;SDS011;5455;53.224;6.000;2023-02-28T15:09:06;2.97;;;2.23;;
10805;SDS011;5455;53.224;6.000;2023-02-28T15:11:37;2.70;;;2.10;;
10805;SDS011;5455;53.224;6.000;2023-02-28T15:14:17;6.37;;;2.20;;
10805;SDS011;5455;53.224;6.000;2023-02-28T15:16:48;3.77;;;2.20;;
10805;SDS011;5455;53.224;6.000;2023-02-28T15:19:23;2.80;;;2.30;;
10805;SDS011;5455;53.224;6.000;2023-02-28T15:21:58;4.00;;;2.40;;
10805;SDS011;5455;53.224;6.000;2023-02-28T15:24:36;3.30;;;2.20;;
10805;SDS011;5455;53.224;6.000;2023-02-28T15:27:09;3.23;;;2.30;;
10805;SDS011;5455;53.224;6.000;2023-02-28T15:29:46;3.47;;;2.13;;
10805;SDS011;5455;53.224;6.000;2023-02-28T15:32:29;3.20;;;2.30;;
10805;SDS011;5455;53.224;6.000;2023-02-28T15:34:59;2.60;;;2.40;;
10805;SDS011;5455;53.224;6.000;2023-02-28T15:37:47;3.73;;;2.30;;
10805;SDS011;5455;53.224;6.000;2023-02-28T15:40:26;4.77;;;2.30;;
10805;SDS011;5455;53.224;6.000;2023-02-28T15:45:47;3.97;;;2.43;;
10805;SDS011;5455;53.224;6.000;2023-02-28T15:48:21;3.60;;;2.70;;
10805;SDS011;5455;53.224;6.000;2023-02-28T15:50:52;3.67;;;2.70;;
10805;SDS011;5455;53.224;6.000;2023-02-28T15:53:26;6.73;;;3.17;;
10805;SDS011;5455;53.224;6.000;2023-02-28T15:56:12;3.63;;;2.63;;
10805;SDS011;5455;53.224;6.000;2023-02-28T15:58:58;5.53;;;2.80;;
10805;SDS011;5455;53.224;6.000;2023-02-28T16:01:29;4.57;;;2.87;;
10805;SDS011;5455;53.224;6.000;2023-02-28T16:04:01;4.87;;;3.30;;
10805;SDS011;5455;53.224;6.000;2023-02-28T16:06:38;4.93;;;3.70;;
10805;SDS011;5455;53.224;6.000;2023-02-28T16:09:14;5.63;;;3.07;;
10805;SDS011;5455;53.224;6.000;2023-02-28T16:11:47;4.47;;;2.23;;
10805;SDS011;5455;53.224;6.000;2023-02-28T16:14:17;7.07;;;3.30;;
10805;SDS011;5455;53.224;6.000;2023-02-28T16:16:51;4.87;;;2.70;;
10805;SDS011;5455;53.224;6.000;2023-02-28T16:19:20;4.77;;;3.00;;
10805;SDS011;5455;53.224;6.000;2023-02-28T16:21:48;4.80;;;3.50;;
10805;SDS011;5455;53.224;6.000;2023-02-28T16:24:15;3.50;;;2.70;;
10805;SDS011;5455;53.224;6.000;2023-02-28T16:26:42;3.83;;;3.13;;
10805;SDS011;5455;53.224;6.000;2023-02-28T16:29:23;4.30;;;3.10;;
10805;SDS011;5455;53.224;6.000;2023-02-28T16:31:53;5.93;;;3.40;;
10805;SDS011;5455;53.224;6.000;2023-02-28T16:34:20;4.67;;;3.10;;
10805;SDS011;5455;53.224;6.000;2023-02-28T16:36:48;3.87;;;3.30;;
10805;SDS011;5455;53.224;6.000;2023-02-28T16:39:16;3.93;;;3.53;;
10805;SDS011;5455;53.224;6.000;2023-02-28T16:41:43;4.67;;;3.60;;
10805;SDS011;5455;53.224;6.000;2023-02-28T16:44:13;6.27;;;3.57;;
10805;SDS011;5455;53.224;6.000;2023-02-28T16:46:48;6.33;;;4.37;;
10805;SDS011;5455;53.224;6.000;2023-02-28T16:49:16;5.77;;;3.60;;
10805;SDS011;5455;53.224;6.000;2023-02-28T16:51:45;7.47;;;3.80;;
10805;SDS011;5455;53.224;6.000;2023-02-28T16:54:12;6.40;;;3.80;;
10805;SDS011;5455;53.224;6.000;2023-02-28T16:56:40;5.23;;;3.93;;
10805;SDS011;5455;53.224;6.000;2023-02-28T16:59:11;4.27;;;3.57;;
10805;SDS011;5455;53.224;6.000;2023-02-28T17:01:39;4.70;;;3.87;;
10805;SDS011;5455;53.224;6.000;2023-02-28T17:04:08;5.37;;;3.50;;
10805;SDS011;5455;53.224;6.000;2023-02-28T17:06:35;5.50;;;3.63;;
10805;SDS011;5455;53.224;6.000;2023-02-28T17:09:02;5.10;;;3.43;;
10805;SDS011;5455;53.224;6.000;2023-02-28T17:11:29;7.43;;;4.50;;
10805;SDS011;5455;53.224;6.000;2023-02-28T17:13:57;10.37;;;5.00;;
10805;SDS011;5455;53.224;6.000;2023-02-28T17:16:32;5.77;;;4.20;;
10805;SDS011;5455;53.224;6.000;2023-02-28T17:19:03;6.27;;;4.30;;
10805;SDS011;5455;53.224;6.000;2023-02-28T17:21:32;9.20;;;5.27;;
10805;SDS011;5455;53.224;6.000;2023-02-28T17:24:00;8.80;;;5.27;;
10805;SDS011;5455;53.224;6.000;2023-02-28T17:26:27;6.77;;;4.77;;
10805;SDS011;5455;53.224;6.000;2023-02-28T17:28:55;6.53;;;3.90;;
10805;SDS011;5455;53.224;6.000;2023-02-28T17:31:23;7.80;;;4.40;;
10805;SDS011;5455;53.224;6.000;2023-02-28T17:33:51;7.40;;;4.63;;
10805;SDS011;5455;53.224;6.000;2023-02-28T17:36:23;9.93;;;4.83;;
10805;SDS011;5455;53.224;6.000;2023-02-28T17:38:53;6.00;;;4.40;;
10805;SDS011;5455;53.224;6.000;2023-02-28T17:41:21;6.43;;;4.23;;
10805;SDS011;5455;53.224;6.000;2023-02-28T17:43:48;6.63;;;4.30;;
10805;SDS011;5455;53.224;6.000;2023-02-28T17:46:18;4.80;;;4.07;;
10805;SDS011;5455;53.224;6.000;2023-02-28T17:48:48;7.57;;;4.60;;
10805;SDS011;5455;53.224;6.000;2023-02-28T17:51:16;7.77;;;4.83;;
10805;SDS011;5455;53.224;6.000;2023-02-28T17:53:44;6.07;;;4.57;;
10805;SDS011;5455;53.224;6.000;2023-02-28T17:56:15;6.03;;;4.33;;
10805;SDS011;5455;53.224;6.000;2023-02-28T17:58:44;8.97;;;5.23;;
10805;SDS011;5455;53.224;6.000;2023-02-28T18:01:11;7.90;;;5.10;;
10805;SDS011;5455;53.224;6.000;2023-02-28T18:03:39;6.97;;;4.70;;
10805;SDS011;5455;53.224;6.000;2023-02-28T18:06:06;7.77;;;4.53;;